Time;durP1;ratioP1;P1;durP2;ratioP2;P2;SDS_P1;SDS_P2;PMS_P1;PMS_P2;Temp;Humidity;BMP_temperature;BMP_pressure;BME280_temperature;BME280_humidity;BME280_pressure;Samples;Min_cycle;Max_cycle;Signal;HPM_P1;HPM_P2
2022/10/31 00:01:39;;;;;;;6.82;4.60;;;16.00;99.90;;;16.54;77.22;101891.78;5116948;28;20039;-68
2022/10/31 00:04:08;;;;;;;7.43;4.27;;;16.10;99.90;;;16.41;76.94;101863.41;5116838;28;20074;-68
2022/10/31 00:06:36;;;;;;;6.53;4.50;;;16.20;99.90;;;16.58;77.03;101897.97;5116806;28;20036;-68
2022/10/31 00:09:06;;;;;;;5.18;4.45;;;16.20;99.90;;;16.40;77.04;101872.31;5117192;28;20086;-68
2022/10/31 00:11:34;;;;;;;5.32;4.50;;;16.20;99.90;;;16.36;77.00;101870.59;5116694;28;20039;-68
2022/10/31 00:14:04;;;;;;;4.78;4.38;;;16.20;99.90;;;16.71;76.61;101907.56;5116968;28;20546;-68
2022/10/31 00:16:32;;;;;;;15.90;5.35;;;16.30;99.90;;;16.67;76.55;101897.81;5116485;28;20048;-68
2022/10/31 00:19:04;;;;;;;6.10;5.15;;;16.30;99.90;;;16.53;76.63;101881.97;5132407;27;20492;-68
2022/10/31 00:21:34;;;;;;;8.15;5.50;;;16.30;99.90;;;16.52;76.61;101877.56;5116727;28;20115;-68
2022/10/31 00:24:03;;;;;;;6.32;4.68;;;16.30;99.90;;;16.67;76.77;101932.56;5116611;28;20047;-68
2022/10/31 00:26:33;;;;;;;6.97;5.00;;;16.30;99.90;;;16.51;76.58;101912.31;5116436;28;20047;-68
2022/10/31 00:29:02;;;;;;;5.30;4.78;;;16.20;99.90;;;16.00;76.67;101841.66;5115211;28;20100;-69
2022/10/31 00:31:30;;;;;;;5.85;4.97;;;16.10;99.90;;;16.43;76.80;101903.47;5114474;28;20054;-68
2022/10/31 00:34:02;;;;;;;8.18;4.97;;;16.00;99.90;;;16.33;76.70;101897.34;5115187;28;20043;-68
2022/10/31 00:36:31;;;;;;;6.32;5.05;;;16.00;99.90;;;16.42;77.37;101913.25;5116286;28;20036;-68
2022/10/31 00:39:01;;;;;;;6.35;5.50;;;16.00;99.90;;;16.48;77.55;101912.28;5116395;28;20046;-68
2022/10/31 00:41:29;;;;;;;8.27;5.57;;;16.10;99.90;;;16.20;77.73;101858.34;5116271;28;20069;-68
2022/10/31 00:43:59;;;;;;;7.32;5.65;;;16.10;99.90;;;16.44;77.26;101906.09;5116062;28;20050;-69
2022/10/31 00:46:28;;;;;;;9.17;5.77;;;16.10;99.90;;;16.03;77.39;101847.84;5114992;28;20059;-68
2022/10/31 00:48:56;;;;;;;6.60;5.90;;;16.10;99.90;;;16.44;77.47;101906.09;5114896;28;20044;-68
2022/10/31 00:51:28;;;;;;;7.05;5.85;;;16.10;99.90;;;16.41;77.97;101918.63;5116088;28;20126;-68
2022/10/31 00:53:56;;;;;;;9.02;5.70;;;16.10;99.90;;;16.36;78.20;101899.97;5114930;28;20054;-68
2022/10/31 00:56:25;;;;;;;8.10;5.80;;;16.00;99.90;;;16.28;78.83;101909.84;5114413;28;20052;-68
2022/10/31 00:58:53;;;;;;;7.68;5.85;;;15.90;99.90;;;16.17;78.82;101888.63;5114713;28;20504;-68
2022/10/31 01:01:23;;;;;;;6.20;5.60;;;15.90;99.90;;;16.13;78.89;101868.19;5114656;28;20047;-68
2022/10/31 01:03:52;;;;;;;8.73;6.40;;;15.90;99.90;;;16.23;78.44;101852.94;5114203;28;20046;-68
2022/10/31 01:06:20;;;;;;;6.55;5.82;;;16.00;99.90;;;16.33;78.36;101875.97;5115447;28;20044;-68
2022/10/31 01:08:49;;;;;;;8.55;6.70;;;16.10;99.90;;;16.35;78.05;101868.84;5115654;27;20108;-68
2022/10/31 01:11:22;;;;;;;7.00;6.15;;;16.10;99.90;;;15.94;78.13;101796.34;5131737;27;20138;-68
2022/10/31 01:13:53;;;;;;;6.90;6.20;;;16.10;99.90;;;14.72;78.08;101587.03;5115843;28;20040;-68
2022/10/31 01:16:26;;;;;;;8.75;6.93;;;16.10;99.90;;;16.47;78.50;101891.84;5115663;28;20043;-68
2022/10/31 01:18:54;;;;;;;8.48;6.90;;;16.10;99.90;;;16.42;78.76;101886.53;5115617;28;20118;-69
2022/10/31 01:21:25;;;;;;;8.15;6.38;;;16.10;99.90;;;16.29;78.74;101858.22;5115355;28;20374;-66
2022/10/31 01:23:55;;;;;;;8.50;6.30;;;16.10;99.90;;;16.44;78.85;101873.16;5115307;28;20074;-66
2022/10/31 01:26:26;;;;;;;8.55;6.50;;;16.10;99.90;;;14.71;78.33;101578.16;5114173;28;20044;-65
2022/10/31 01:28:57;;;;;;;7.32;6.13;;;16.20;99.90;;;16.57;78.26;101897.06;5114119;28;20056;-66
2022/10/31 01:31:30;;;;;;;6.30;5.55;;;16.20;99.90;;;16.40;78.35;101885.66;5115076;28;20035;-66
2022/10/31 01:34:00;;;;;;;6.88;6.03;;;16.10;99.90;;;16.29;78.23;101887.59;5113920;28;20435;-66
2022/10/31 01:36:31;;;;;;;7.25;6.00;;;15.90;99.90;;;16.27;78.39;101892.06;5115345;28;20051;-66
2022/10/31 01:39:02;;;;;;;7.03;5.88;;;15.90;99.90;;;14.38;78.45;101546.53;5113951;28;20051;-65
2022/10/31 01:41:34;;;;;;;9.38;6.78;;;15.80;99.90;;;16.23;79.16;101883.22;5115231;27;20044;-66
2022/10/31 01:44:53;;;;;;;7.95;6.78;;;15.80;99.90;;;16.38;79.14;101873.22;5115030;28;20035;-65
2022/10/31 01:47:39;;;;;;;9.30;6.70;;;15.90;99.90;;;16.37;78.74;101860.81;5113721;28;20039;-66
2022/10/31 01:50:15;;;;;;;7.80;7.00;;;16.00;99.90;;;16.45;78.61;101858.91;5114846;28;20053;-65
2022/10/31 01:52:48;;;;;;;7.68;6.22;;;16.10;99.90;;;16.21;78.62;101865.44;5114709;28;20082;-66
2022/10/31 01:55:22;;;;;;;6.80;6.00;;;16.10;99.90;;;16.45;78.40;101867.81;5114934;28;20416;-66
2022/10/31 01:58:00;;;;;;;9.73;6.90;;;16.10;99.90;;;16.44;78.39;101866.03;5130663;27;20039;-65
2022/10/31 02:00:29;;;;;;;8.32;5.82;;;16.10;99.90;;;16.31;78.19;101856.41;5130583;27;20059;-66
2022/10/31 02:02:59;;;;;;;7.70;6.07;;;16.00;99.90;;;16.28;77.75;101865.34;5114475;28;20043;-65
2022/10/31 02:05:31;;;;;;;8.65;6.75;;;15.90;99.90;;;16.21;77.59;101862.75;5114772;28;20044;-66
2022/10/31 02:08:04;;;;;;;6.07;5.28;;;15.80;99.90;;;15.96;77.75;101862.16;5114467;28;20130;-65
2022/10/31 02:10:35;;;;;;;6.30;5.65;;;15.70;99.90;;;15.74;77.49;101862.38;5113304;28;20047;-66
2022/10/31 02:13:07;;;;;;;6.32;5.00;;;15.50;99.90;;;15.65;77.97;101859.81;5130276;27;20394;-66
2022/10/31 02:15:45;;;;;;;7.78;5.85;;;15.20;99.90;;;15.67;78.16;101866.00;5112539;28;20496;-66
2022/10/31 02:18:15;;;;;;;7.43;5.78;;;15.20;99.90;;;15.73;78.62;101865.94;5112793;28;20100;-66
2022/10/31 02:21:04;;;;;;;5.28;4.82;;;15.30;99.90;;;15.66;78.42;101864.25;5113167;28;20040;-68
2022/10/31 02:24:29;;;;;;;6.93;6.13;;;15.30;99.90;;;15.62;79.47;101870.50;5112913;28;20044;-68
2022/10/31 02:27:22;;;;;;;8.68;7.68;;;15.20;99.90;;;15.78;79.90;101873.00;5114138;28;20057;-68
2022/10/31 02:30:07;;;;;;;9.13;6.95;;;15.40;99.90;;;15.72;81.05;101870.41;5114003;28;20071;-68
2022/10/31 02:33:01;;;;;;;8.93;8.02;;;15.30;99.90;;;15.65;81.44;101876.69;5113902;28;20050;-69
2022/10/31 02:35:54;;;;;;;9.20;8.23;;;15.30;99.90;;;15.60;82.14;101864.31;5112793;28;20055;-68
2022/10/31 02:38:38;;;;;;;11.85;8.85;;;15.20;99.90;;;15.73;82.52;101863.28;5112560;28;20047;-68
2022/10/31 02:41:19;;;;;;;10.70;8.20;;;15.30;99.90;;;15.81;82.54;101861.44;5130090;27;20043;-68
2022/10/31 02:44:05;;;;;;;10.43;8.85;;;15.30;99.90;;;15.79;82.17;101857.91;5112981;28;20382;-67
2022/10/31 02:46:39;;;;;;;8.50;7.70;;;15.40;99.90;;;15.62;83.03;101846.50;5113723;28;20043;-69
2022/10/31 02:49:19;;;;;;;11.60;8.93;;;15.30;99.90;;;15.25;83.52;101773.94;5112444;28;20078;-68
2022/10/31 02:51:48;;;;;;;10.15;8.10;;;15.30;99.90;;;15.77;83.73;101859.69;5112642;28;20069;-68
2022/10/31 02:54:23;;;;;;;11.20;8.93;;;15.30;99.90;;;15.72;84.02;101861.50;5113819;28;20051;-68
2022/10/31 02:57:00;;;;;;;9.55;8.52;;;15.30;99.90;;;15.64;84.35;101866.03;5129457;27;20079;-68
2022/10/31 02:59:31;;;;;;;9.45;8.52;;;15.30;99.90;;;15.56;84.52;101857.22;5112176;28;20112;-68
2022/10/31 03:02:22;;;;;;;9.95;8.95;;;15.20;99.90;;;15.27;84.41;101815.66;5112404;28;20083;-68
2022/10/31 03:05:28;;;;;;;10.23;9.13;;;15.10;99.90;;;15.52;84.44;101855.47;5112196;28;20039;-68
2022/10/31 03:08:03;;;;;;;11.98;9.30;;;15.10;99.90;;;15.54;84.62;101856.34;5097163;28;20059;-68
2022/10/31 03:10:42;;;;;;;9.57;8.27;;;15.20;99.90;;;15.47;84.96;101859.94;5112321;28;20134;-68
2022/10/31 03:13:18;;;;;;;11.25;8.30;;;15.10;99.90;;;15.38;84.68;101856.47;5112313;28;20048;-68
2022/10/31 03:15:52;;;;;;;10.02;8.32;;;15.00;99.90;;;15.27;84.92;101846.78;5112126;28;20100;-68
2022/10/31 03:18:27;;;;;;;10.80;8.02;;;15.00;99.90;;;15.27;85.13;101863.63;5113116;28;20489;-68
2022/10/31 03:21:06;;;;;;;10.82;8.48;;;14.90;99.90;;;15.15;85.23;101857.53;5111963;28;20055;-68
2022/10/31 03:23:37;;;;;;;12.03;8.13;;;14.80;99.90;;;15.06;85.48;101857.59;5113512;28;20036;-68
2022/10/31 03:26:08;;;;;;;9.95;7.63;;;14.70;99.90;;;14.97;85.32;101863.88;5113273;28;20067;-68
2022/10/31 03:28:43;;;;;;;13.23;7.65;;;14.70;99.90;;;14.66;85.81;101859.59;5111600;28;20047;-68
2022/10/31 03:31:15;;;;;;;9.68;8.05;;;14.50;99.90;;;14.72;86.11;101864.91;5113124;28;20063;-68
2022/10/31 03:33:45;;;;;;;10.57;7.95;;;14.40;99.90;;;14.35;86.39;101818.03;5111708;28;20059;-68
2022/10/31 03:36:17;;;;;;;13.00;8.93;;;14.40;99.90;;;14.54;86.89;101856.13;5113198;28;20076;-68
2022/10/31 03:38:47;;;;;;;13.35;8.25;;;14.30;99.90;;;14.53;87.32;101855.25;5113024;28;20047;-69
2022/10/31 03:41:23;;;;;;;11.05;8.70;;;14.20;99.90;;;14.25;87.57;101814.50;5128855;28;20104;-68
2022/10/31 03:43:59;;;;;;;13.40;10.07;;;14.20;99.90;;;14.26;87.99;101810.09;5111917;28;20056;-68
2022/10/31 03:46:28;;;;;;;15.70;10.40;;;14.20;99.90;;;14.51;88.40;101856.13;5111814;28;20066;-68
2022/10/31 03:48:59;;;;;;;12.45;10.13;;;14.20;99.90;;;13.69;88.50;101718.09;5111813;28;20097;-68
2022/10/31 03:51:38;;;;;;;18.58;10.75;;;14.10;99.90;;;14.43;88.99;101850.84;5111555;28;20168;-68
2022/10/31 03:54:14;;;;;;;15.60;10.93;;;14.10;99.90;;;14.22;89.23;101829.63;5128976;27;20055;-68
2022/10/31 03:56:50;;;;;;;17.65;11.55;;;14.10;99.90;;;14.38;89.59;101850.84;5112944;28;20767;-68
2022/10/31 03:59:25;;;;;;;17.27;12.52;;;14.10;99.90;;;14.40;89.26;101840.22;5112924;28;20044;-68
2022/10/31 04:01:59;;;;;;;13.38;11.43;;;14.10;99.90;;;14.22;89.32;101824.28;5128614;28;20047;-68
2022/10/31 04:04:29;;;;;;;15.60;12.10;;;14.10;99.90;;;13.30;89.36;101663.28;5128791;28;20050;-68
2022/10/31 04:07:02;;;;;;;17.67;13.77;;;14.20;99.90;;;14.53;89.43;101860.56;5112916;28;20059;-68
2022/10/31 04:09:34;;;;;;;19.58;13.88;;;14.20;99.90;;;14.58;89.52;101856.09;5111566;28;20047;-68
2022/10/31 04:12:08;;;;;;;17.88;14.00;;;14.30;99.90;;;14.61;89.45;101863.19;5112641;28;20496;-68
2022/10/31 04:15:08;;;;;;;19.02;14.30;;;14.30;99.90;;;14.56;89.41;101851.66;5128482;27;20036;-68
2022/10/31 04:17:41;;;;;;;16.90;14.30;;;14.30;99.90;;;14.70;89.46;101861.38;5111528;28;20051;-68
2022/10/31 04:20:11;;;;;;;19.13;15.25;;;14.40;99.90;;;14.59;89.40;101843.66;5128474;27;20572;-66
2022/10/31 04:22:41;;;;;;;17.05;14.48;;;14.40;99.90;;;14.36;89.46;101806.53;5111252;28;20136;-66
2022/10/31 04:25:10;;;;;;;19.83;15.03;;;14.40;99.90;;;14.57;89.49;101856.09;5128235;27;20070;-66
2022/10/31 04:27:39;;;;;;;23.15;15.80;;;14.40;99.90;;;14.69;89.49;101848.06;5128579;28;20455;-66
2022/10/31 04:30:10;;;;;;;17.90;15.02;;;14.40;99.90;;;14.76;89.19;101849.78;5111451;28;20081;-66
2022/10/31 04:32:41;;;;;;;17.42;15.15;;;14.40;99.90;;;14.89;88.83;101863.03;5128332;27;20083;-66
2022/10/31 04:35:09;;;;;;;19.30;14.48;;;14.50;99.90;;;14.89;88.25;101873.69;5112483;28;20045;-66
2022/10/31 04:37:38;;;;;;;17.10;14.13;;;14.50;99.90;;;14.71;88.12;101841.81;5111062;28;20043;-66
2022/10/31 04:40:09;;;;;;;17.13;13.93;;;14.50;99.90;;;14.92;88.31;101846.13;5112903;28;20040;-66
2022/10/31 04:42:40;;;;;;;17.55;15.05;;;14.50;99.90;;;14.81;88.36;101832.88;5116389;28;20453;-67
2022/10/31 04:45:10;;;;;;;19.48;14.77;;;14.50;99.90;;;14.76;88.49;101839.13;5114883;28;20453;-66
2022/10/31 04:47:45;;;;;;;16.88;14.50;;;14.40;99.90;;;14.49;89.26;101850.81;5131866;27;20534;-66
2022/10/31 04:50:14;;;;;;;22.65;15.05;;;14.10;99.90;;;14.38;90.21;101850.84;5115982;28;20040;-66
2022/10/31 04:52:47;;;;;;;18.58;15.07;;;13.90;99.90;;;14.35;90.87;101847.31;5114847;28;20146;-65
2022/10/31 04:55:19;;;;;;;18.25;14.65;;;13.90;99.90;;;14.26;91.56;101842.91;5116376;28;20047;-66
2022/10/31 04:58:00;;;;;;;15.52;13.90;;;13.80;99.90;;;14.18;91.92;101827.84;5115854;28;20048;-68
2022/10/31 05:00:29;;;;;;;20.60;14.70;;;13.80;99.90;;;14.25;92.39;101842.88;5115626;28;20548;-66
2022/10/31 05:02:59;;;;;;;18.98;14.40;;;13.80;99.90;;;14.14;92.34;101811.00;5114680;28;20050;-67
2022/10/31 05:05:32;;;;;;;20.25;15.70;;;13.80;99.90;;;14.23;92.38;101831.38;5114689;28;20139;-66
2022/10/31 05:08:04;;;;;;;20.27;14.73;;;13.80;99.90;;;14.18;92.84;101814.53;5131557;27;20044;-66
2022/10/31 05:10:34;;;;;;;19.85;14.70;;;13.90;99.90;;;14.42;92.67;101841.06;5115638;28;20051;-67
2022/10/31 05:13:05;;;;;;;17.60;14.50;;;14.00;99.90;;;14.39;92.58;101830.44;5114241;28;20100;-67
2022/10/31 05:15:34;;;;;;;17.65;14.02;;;14.00;99.90;;;14.18;92.41;101817.19;5115752;28;20416;-66
2022/10/31 05:18:21;;;;;;;16.88;14.57;;;14.00;99.90;;;14.24;92.27;101833.16;5115512;28;20512;-66
2022/10/31 05:21:08;;;;;;;17.67;14.63;;;13.90;99.90;;;14.13;92.50;101829.66;5115647;28;20169;-66
2022/10/31 05:23:38;;;;;;;;;;;13.80;99.90;;;13.99;92.88;101800.44;5115982;28;20051;-67
2022/10/31 05:26:17;;;;;;;17.35;14.95;;;13.70;99.90;;;14.12;93.07;101812.78;5131314;27;19923;-66
2022/10/31 05:28:49;;;;;;;21.40;15.55;;;13.70;99.90;;;14.26;92.80;101813.63;5131326;27;20052;-68
2022/10/31 05:31:17;;;;;;;19.95;14.75;;;13.90;99.90;;;14.07;92.44;101773.81;5115153;28;20074;-66
2022/10/31 05:33:46;;;;;;;18.10;14.90;;;14.00;99.90;;;14.30;92.19;101815.41;5113653;28;20071;-66
2022/10/31 05:36:33;;;;;;;17.65;14.88;;;13.90;99.90;;;14.24;92.20;101812.75;5115421;28;20156;-66
2022/10/31 05:39:04;;;;;;;20.98;16.00;;;13.90;99.90;;;14.33;92.46;101819.81;5113955;28;20089;-66
2022/10/31 05:41:42;;;;;;;19.10;15.50;;;13.90;99.90;;;14.19;92.12;101776.38;5113767;28;20151;-66
2022/10/31 05:44:20;;;;;;;17.63;15.57;;;14.10;99.90;;;14.44;91.84;101810.00;5130778;27;20094;-66
2022/10/31 05:46:58;;;;;;;19.88;16.50;;;14.10;99.90;;;14.14;92.71;101812.78;5113859;28;20497;-66
2022/10/31 05:49:45;;;;;;;19.38;15.93;;;13.80;99.90;;;13.88;94.08;101804.03;5115188;28;20055;-66
2022/10/31 05:52:36;;;;;;;21.30;16.77;;;13.60;99.90;;;13.47;95.02;101756.25;5114109;28;20501;-67
2022/10/31 05:55:15;;;;;;;18.88;16.00;;;13.50;99.90;;;13.87;94.86;101804.91;5113716;28;20105;-69
2022/10/31 05:57:59;;;;;;;17.88;15.18;;;13.50;99.90;;;13.56;95.25;101753.56;5130668;27;20054;-66
2022/10/31 06:00:28;;;;;;;;;;;13.50;99.90;;;13.77;94.89;101785.41;5131026;27;20051;-66
2022/10/31 06:03:08;;;;;;;19.05;15.82;;;13.50;99.90;;;13.66;94.86;101759.75;5130345;27;19941;-66
2022/10/31 06:05:55;;;;;;;24.45;17.23;;;13.60;99.90;;;13.85;94.83;101801.34;5113373;28;20047;-66
2022/10/31 06:08:31;;;;;;;19.95;15.88;;;13.50;99.90;;;13.73;95.22;101801.38;5113282;28;20260;-66
2022/10/31 06:11:05;;;;;;;22.85;15.52;;;13.40;99.90;;;13.52;96.12;101800.56;5113141;28;20408;-66
2022/10/31 06:13:53;;;;;;;22.60;16.73;;;13.20;99.90;;;13.31;96.99;101803.22;5114655;28;20131;-66
2022/10/31 06:16:30;;;;;;;24.42;18.85;;;13.00;99.90;;;13.10;97.71;101766.06;5130284;27;20085;-66
2022/10/31 06:19:05;;;;;;;21.20;17.70;;;13.00;99.90;;;13.36;98.49;101801.44;5129968;27;20050;-66
2022/10/31 06:21:35;;;;;;;22.92;18.45;;;13.10;99.90;;;13.23;98.39;101778.44;5114166;28;20048;-66
2022/10/31 06:24:05;;;;;;;25.63;19.17;;;13.00;99.90;;;13.08;98.64;101765.16;5112783;28;20079;-66
2022/10/31 06:26:56;;;;;;;26.77;19.58;;;13.00;99.90;;;13.39;98.84;101812.06;5113984;28;20048;-66
2022/10/31 06:29:25;;;;;;;25.27;19.60;;;13.00;99.90;;;13.30;99.08;101789.91;5112855;28;20207;-66
2022/10/31 06:32:22;;;;;;;23.35;19.48;;;13.10;99.90;;;12.99;99.05;101773.09;5111687;28;20052;-67
2022/10/31 06:34:53;;;;;;;25.85;19.25;;;12.90;99.90;;;13.22;100.00;101816.50;5130247;27;20075;-67
2022/10/31 06:37:23;;;;;;;24.65;19.58;;;12.90;99.90;;;13.18;99.66;101779.31;5130029;27;20078;-67
2022/10/31 06:39:53;;;;;;;26.60;18.98;;;13.00;99.90;;;13.40;99.19;101805.88;5129829;27;20044;-68
2022/10/31 06:42:22;;;;;;;27.30;19.83;;;13.00;99.90;;;13.38;99.76;101814.72;5112491;28;20108;-67
2022/10/31 06:44:52;;;;;;;28.77;20.52;;;13.00;99.90;;;13.09;100.00;101787.28;5112380;28;20043;-67
2022/10/31 06:47:39;;;;;;;28.90;21.67;;;12.90;99.90;;;13.02;100.00;101772.22;5113699;28;20042;-67
2022/10/31 06:50:31;;;;;;;27.23;20.30;;;12.90;99.90;;;13.38;100.00;101814.72;5112208;28;20402;-67
2022/10/31 06:53:00;;;;;;;32.05;21.73;;;13.00;99.90;;;13.42;100.00;101824.47;5129191;27;20400;-68
2022/10/31 06:55:29;;;;;;;25.65;21.10;;;13.10;99.90;;;13.44;100.00;101830.66;5112139;28;20055;-67
2022/10/31 06:58:00;;;;;;;28.65;20.60;;;13.10;99.90;;;12.68;100.00;101703.16;5129512;27;20442;-68
2022/10/31 07:00:33;;;;;;;27.02;20.90;;;13.00;99.90;;;13.47;100.00;101822.72;5112326;28;20055;-67
2022/10/31 07:03:11;;;;;;;28.15;21.27;;;13.10;99.90;;;13.32;100.00;101830.66;5129001;27;20044;-67
2022/10/31 07:05:40;;;;;;;27.95;21.10;;;13.00;99.90;;;13.00;100.00;101800.53;5129117;27;20125;-67
2022/10/31 07:08:11;;;;;;;32.72;23.23;;;12.80;99.90;;;13.16;100.00;101834.22;5129218;27;20048;-67
2022/10/31 07:10:42;;;;;;;30.52;22.92;;;12.80;99.90;;;13.15;100.00;101830.69;5129337;27;20078;-67
2022/10/31 07:13:14;;;;;;;28.75;22.80;;;12.80;99.90;;;13.06;100.00;101816.50;5112024;28;20043;-67
2022/10/31 07:15:52;;;;;;;29.52;23.40;;;12.80;99.90;;;13.12;100.00;101798.81;5129147;27;20066;-68
2022/10/31 07:18:21;;;;;;;;;;;13.00;99.90;;;13.42;100.00;101841.31;5129519;27;20062;-67
2022/10/31 07:20:49;;;;;;;29.73;22.58;;;13.00;99.90;;;13.46;100.00;101850.16;5111974;28;20026;-68
2022/10/31 07:23:19;;;;;;;30.45;23.05;;;13.10;99.90;;;13.19;100.00;101819.16;5111717;28;20412;-67
2022/10/31 07:26:02;;;;;;;26.50;21.38;;;13.00;99.90;;;12.72;100.00;101748.31;5111927;28;20050;-68
2022/10/31 07:28:42;;;;;;;32.88;23.55;;;13.00;99.90;;;13.33;100.00;101859.03;5111837;28;20059;-67
2022/10/31 07:31:14;;;;;;;31.30;23.20;;;13.00;99.90;;;13.39;100.00;101843.94;5111788;28;20048;-67
2022/10/31 07:33:43;;;;;;;29.98;22.38;;;13.00;99.90;;;13.19;100.00;101805.00;5111636;28;20055;-67
2022/10/31 07:36:37;;;;;;;31.83;23.92;;;13.00;99.90;;;13.36;100.00;101841.31;5111856;28;20055;-67
2022/10/31 07:39:06;;;;;;;30.80;24.40;;;13.00;99.90;;;13.27;100.00;101857.25;5128688;28;20047;-67
2022/10/31 07:41:36;;;;;;;32.33;24.57;;;13.00;99.90;;;13.48;100.00;101833.34;5111534;28;20135;-68
2022/10/31 07:44:05;;;;;;;31.05;24.48;;;13.10;99.90;;;13.35;100.00;101822.72;5113326;28;20328;-67
2022/10/31 07:46:55;;;;;;;31.05;24.85;;;13.10;99.90;;;12.93;100.00;101740.34;5101403;28;20044;-67
2022/10/31 07:49:41;;;;;;;34.40;25.15;;;13.10;99.90;;;13.38;100.00;101828.91;5113249;28;20181;-67
2022/10/31 07:52:28;;;;;;;33.67;26.15;;;13.00;99.90;;;13.33;100.00;101779.31;5113065;28;20096;-67
2022/10/31 07:55:16;;;;;;;35.28;26.10;;;13.10;99.90;;;13.54;100.00;101824.47;5113119;28;20055;-67
2022/10/31 07:57:57;;;;;;;32.33;25.17;;;13.20;99.90;;;13.49;100.00;101813.81;5112665;28;20048;-67
2022/10/31 08:00:26;;;;;;;36.80;24.30;;;13.20;99.90;;;13.56;100.00;101791.69;5128735;27;20435;-67
2022/10/31 08:03:01;;;;;;;32.92;24.80;;;13.40;99.90;;;13.78;100.00;101823.53;5111528;28;20047;-67
2022/10/31 08:06:00;;;;;;;37.42;26.17;;;13.40;99.90;;;13.72;100.00;101834.19;5112150;28;20059;-67
2022/10/31 08:08:49;;;;;;;38.13;25.30;;;13.40;99.90;;;13.58;100.00;101797.00;5089084;28;20064;-67
2022/10/31 08:11:18;;;;;;;34.30;24.88;;;13.40;99.90;;;13.71;100.00;101812.03;5111795;28;20073;-67
2022/10/31 08:13:48;;;;;;;37.40;26.42;;;13.50;99.90;;;14.14;100.00;101828.75;5128677;27;20050;-67
2022/10/31 08:16:21;;;;;;;31.67;25.02;;;13.70;99.90;;;14.29;100.00;101842.03;5116130;28;20374;-67
2022/10/31 08:18:56;;;;;;;38.92;26.25;;;13.90;99.90;;;14.32;100.00;101826.06;5115068;28;20138;-67
2022/10/31 08:21:25;;;;;;;36.72;25.73;;;14.00;99.90;;;14.37;100.00;101833.13;5132458;27;20509;-68
2022/10/31 08:23:53;;;;;;;35.65;26.00;;;14.10;99.90;;;14.36;100.00;101843.78;5115334;28;20432;-67
2022/10/31 08:26:24;;;;;;;38.67;26.58;;;14.00;99.90;;;14.31;100.00;101818.94;5115357;28;20436;-68
2022/10/31 08:28:55;;;;;;;41.08;25.63;;;14.20;99.90;;;14.66;100.00;101859.59;5115049;28;20047;-68
2022/10/31 08:31:30;;;;;;;39.05;25.10;;;14.30;99.90;;;15.23;100.00;101853.88;5114775;28;20100;-67
2022/10/31 08:34:22;;;;;;;39.90;25.42;;;14.70;99.90;;;15.45;96.98;101851.97;5116427;28;20054;-66
2022/10/31 08:37:09;;;;;;;43.95;28.25;;;15.10;99.90;;;15.67;95.50;101839.34;5116629;28;20057;-66
2022/10/31 08:39:42;;;;;;;46.60;28.20;;;15.30;99.90;;;15.33;95.28;101826.25;5132368;27;20052;-67
2022/10/31 08:42:11;;;;;;;37.58;27.33;;;15.10;99.90;;;15.87;95.57;101835.53;5132159;27;20151;-67
2022/10/31 08:44:39;;;;;;;45.80;27.85;;;15.40;99.90;;;15.43;94.42;101791.59;5114964;28;20047;-67
2022/10/31 08:47:08;;;;;;;43.25;28.33;;;15.40;99.90;;;15.37;96.03;101836.00;5132076;27;20097;-67
2022/10/31 08:49:38;;;;;;;49.58;30.15;;;15.10;99.90;;;15.47;95.55;101842.19;5114722;28;20139;-67
2022/10/31 08:52:06;;;;;;;51.17;31.52;;;15.10;99.90;;;15.44;96.58;101828.00;5114454;28;20146;-66
2022/10/31 08:54:41;;;;;;;54.13;32.08;;;15.10;99.90;;;15.30;97.02;101838.75;5131908;27;20082;-67
2022/10/31 08:57:29;;;;;;;52.92;32.40;;;14.90;99.90;;;15.25;96.29;101809.44;5116019;28;20096;-66
2022/10/31 08:59:59;;;;;;;56.47;32.80;;;15.10;99.90;;;15.33;97.91;101828.03;5114634;28;20077;-67
2022/10/31 09:02:49;;;;;;;57.38;32.03;;;14.90;99.90;;;15.35;97.75;101827.13;5131381;27;20040;-66
2022/10/31 09:05:18;;;;;;;52.53;32.05;;;14.90;99.90;;;15.27;98.01;101790.78;5131712;27;20534;-67
2022/10/31 09:07:47;;;;;;;49.70;31.07;;;15.00;99.90;;;15.66;97.21;101817.09;5114440;28;20450;-67
2022/10/31 09:10:15;;;;;;;52.22;30.23;;;15.20;99.90;;;15.75;96.66;101798.34;5114186;28;20052;-67
2022/10/31 09:12:45;;;;;;;50.38;29.90;;;15.40;99.90;;;15.57;95.69;101746.97;5131455;27;20142;-67
2022/10/31 09:15:33;;;;;;;44.53;28.30;;;15.60;99.90;;;15.80;95.54;101808.94;5115844;28;20100;-67
2022/10/31 09:18:22;;;;;;;42.75;27.70;;;15.50;99.90;;;15.81;95.29;101770.72;5114228;28;20120;-68
2022/10/31 09:21:01;;;;;;;35.05;25.63;;;15.70;99.90;;;16.11;95.11;101813.03;5131227;27;20393;-67
2022/10/31 09:23:31;;;;;;;39.88;26.10;;;15.70;99.90;;;16.08;94.39;101805.09;5114006;28;20081;-67
2022/10/31 09:26:02;;;;;;;38.43;25.77;;;15.90;99.90;;;15.93;95.13;101789.25;5113915;28;20052;-67
2022/10/31 09:28:38;;;;;;;32.83;24.85;;;15.70;99.90;;;15.73;96.18;101778.81;5115514;28;20496;-67
2022/10/31 09:31:14;;;;;;;34.25;22.70;;;15.50;99.90;;;15.45;97.46;101777.31;5114054;28;20075;-67
2022/10/31 09:34:14;;;;;;;30.80;20.83;;;15.20;99.90;;;15.32;97.93;101770.31;5105246;28;20048;-67
2022/10/31 09:36:49;;;;;;;34.00;23.13;;;15.00;99.90;;;15.51;99.00;101774.59;5114000;28;20047;-67
2022/10/31 09:39:21;;;;;;;36.97;22.85;;;15.10;99.90;;;15.24;98.95;101775.69;5113934;28;20044;-67
2022/10/31 09:42:43;;;;;;;29.50;22.20;;;14.90;99.90;;;15.18;100.00;101758.88;5130777;27;20058;-68
2022/10/31 09:45:26;;;;;;;31.17;22.27;;;14.90;99.90;;;15.13;99.48;101740.28;5130970;27;20047;-67
2022/10/31 09:48:14;;;;;;;34.70;21.90;;;14.90;99.90;;;15.34;99.13;101763.19;5113679;28;20151;-66
2022/10/31 09:51:08;;;;;;;34.47;22.88;;;15.00;99.90;;;15.01;97.92;101655.13;5115046;28;20050;-67
2022/10/31 09:54:15;;;;;;;29.63;19.98;;;15.20;99.90;;;15.63;97.96;101752.25;5101877;28;20059;-67
2022/10/31 09:56:44;;;;;;;32.47;21.70;;;15.20;99.90;;;15.75;97.03;101747.66;5131566;27;20044;-67
2022/10/31 09:59:22;;;;;;;28.20;21.17;;;15.30;99.90;;;15.87;97.10;101743.97;5114305;28;20050;-67
2022/10/31 10:01:55;;;;;;;30.85;21.40;;;15.50;99.90;;;15.84;96.21;101749.31;5130668;27;20496;-67
2022/10/31 10:04:37;;;;;;;31.70;21.40;;;15.50;99.90;;;16.08;96.35;101751.72;5114732;28;20078;-68
2022/10/31 10:07:26;;;;;;;29.08;20.73;;;15.70;99.90;;;15.79;96.09;101706.72;5113302;28;20043;-67
2022/10/31 10:10:35;;;;;;;27.05;20.98;;;15.70;99.90;;;16.07;95.94;101707.22;5114580;28;20055;-67
2022/10/31 10:13:57;;;;;;;32.63;20.50;;;15.90;99.90;;;16.44;94.70;101729.84;5107549;28;20051;-67
2022/10/31 10:16:45;;;;;;;28.83;19.45;;;16.10;99.90;;;16.19;94.64;101710.63;5114454;28;20047;-67
2022/10/31 10:19:39;;;;;;;31.42;21.13;;;16.00;99.90;;;16.22;95.25;101725.69;5112893;28;20066;-68
2022/10/31 10:22:15;;;;;;;34.47;20.15;;;15.90;99.90;;;16.55;94.04;101722.56;5114266;28;20040;-67
2022/10/31 10:25:02;;;;;;;26.58;19.38;;;16.20;99.90;;;16.37;93.97;101663.19;5114450;28;20101;-67
2022/10/31 10:27:47;;;;;;;25.35;19.80;;;16.20;99.90;;;16.62;93.28;101677.94;5114212;28;20043;-67
2022/10/31 10:30:20;;;;;;;29.65;18.75;;;16.40;99.90;;;16.80;92.51;101699.91;5114092;28;20058;-67
2022/10/31 10:32:51;;;;;;;28.20;18.55;;;16.50;99.90;;;16.79;93.37;101706.16;5114039;28;20094;-67
2022/10/31 10:35:28;;;;;;;29.70;19.48;;;16.40;99.90;;;16.76;94.18;101706.19;5129953;27;20087;-68
2022/10/31 10:38:04;;;;;;;27.83;17.45;;;16.40;99.90;;;16.64;94.11;101695.72;5113236;28;20040;-67
2022/10/31 10:40:34;;;;;;;26.85;17.20;;;16.30;99.90;;;16.72;94.54;101695.59;5113793;28;20096;-67